Tasman Crusader — A8NQ7 — position and weather

sailwx.info

Track history (hours):
 
Tides and Currents Weather Stations Pressure Air Temp Water Temp Dewpoint Dewpoint Depression Visibility Wind Speed Wind Dir Waves Ship Positions

Tasman Crusader

Last reported at 2015-Mar-17 03:07 UTC. Time now 2015-Apr-01 09:25 UTC.
Position N 30°43' W 116°56'.
Warning: this ship's position is 15 days out of date.

Length 186 m; draft 9.3 m.

Type: Cargo ship. MMSI: 636091434.

Date/timePositionNaut miles runAvg speedWind from/ knotsBaromVisibWave heightAir tempDewpointWater temp
2015-Mar-17 03:07N 30°43' W 116°56'6611.6
2015-Mar-16 21:25N 31°45' W 117°22'1011.1
2015-Mar-16 20:31N 31°54' W 117°26'1111.0
2015-Mar-16 19:32N 32°04' W 117°30'1111.1
2015-Mar-16 18:34N 32°15' W 117°34'1111.1
2015-Mar-16 17:33N 32°25' W 117°38'1010.5
2015-Mar-16 16:33N 32°35' W 117°43'1110.8
2015-Mar-16 15:34N 32°45' W 117°48'1110.6
2015-Mar-16 14:33N 32°55' W 117°52'1110.6
2015-Mar-16 13:33N 33°04' W 117°58'1110.7
2015-Mar-16 12:33N 33°14' W 118°04'1111.0
2015-Mar-16 11:33N 33°24' W 118°08'1111.2
2015-Mar-16 10:33N 33°35' W 118°13'9 9.3
2015-Mar-16 09:33N 33°44' W 118°12'3 2.4
2015-Mar-16 08:28N 33°46' W 118°14'0 0.0
2015-Mar-16 07:28N 33°46' W 118°14'0 0.0
2015-Mar-16 06:28N 33°46' W 118°14'0 0.0
2015-Mar-16 05:28N 33°46' W 118°14'0 0.0
2015-Mar-16 03:10N 33°46' W 118°14'0 0.0
2015-Mar-16 02:22N 33°46' W 118°14'0 0.0
2015-Mar-16 01:22N 33°46' W 118°14'0 0.0
2015-Mar-15 20:19N 33°46' W 118°14'0 0.0
2015-Mar-15 19:31N 33°46' W 118°14'0 0.0
2015-Mar-15 18:31N 33°46' W 118°14'0 0.0
2015-Mar-15 17:31N 33°46' W 118°14'0 0.0
2015-Mar-15 16:31N 33°46' W 118°14'0 0.0
2015-Mar-15 15:31N 33°46' W 118°14'0 0.0
2015-Mar-15 14:31N 33°46' W 118°14'0 0.0
2015-Mar-15 13:31N 33°46' W 118°14'1 0.8
2015-Mar-15 12:33N 33°46' W 118°13'2 1.6
2015-Mar-15 11:33N 33°44' W 118°13'0 0.0
2015-Mar-15 10:30N 33°44' W 118°13'0 0.2
2015-Mar-15 09:30N 33°44' W 118°13'0 0.1
2015-Mar-15 08:33N 33°44' W 118°13'0 0.1
2015-Mar-15 07:33N 33°44' W 118°13'0 0.0
2015-Mar-15 06:33N 33°44' W 118°13'0 0.1
2015-Mar-15 05:33N 33°44' W 118°13'0 0.1
2015-Mar-15 04:33N 33°44' W 118°13'0 0.1
2015-Mar-15 03:33N 33°44' W 118°13'0 0.1
2015-Mar-15 02:33N 33°44' W 118°13'0 0.0
2015-Mar-15 01:33N 33°44' W 118°13'0 0.0
2015-Mar-15 00:33N 33°44' W 118°13'0 0.0
2015-Mar-14 23:32N 33°44' W 118°13'0 0.1
2015-Mar-14 22:33N 33°44' W 118°13'0 0.0
2015-Mar-14 21:32N 33°44' W 118°13'0 0.1
2015-Mar-14 20:32N 33°44' W 118°13'3 3.3
2015-Mar-14 19:33N 33°43' W 118°09'0 0.1
2015-Mar-14 18:27N 33°43' W 118°09'0 0.0
2015-Mar-14 17:24N 33°43' W 118°09'0 0.0
2015-Mar-14 16:30N 33°43' W 118°09'0 0.1
2015-Mar-14 15:33N 33°43' W 118°09'0 0.0
2015-Mar-14 14:33N 33°43' W 118°09'0 0.0
2015-Mar-14 13:33N 33°43' W 118°09'0 0.0
2015-Mar-14 12:33N 33°43' W 118°09'0 0.0
2015-Mar-14 11:33N 33°43' W 118°09'0 0.0
2015-Mar-14 10:33N 33°43' W 118°09'0 0.1
2015-Mar-14 09:33N 33°43' W 118°09'0 0.1
2015-Mar-14 08:33N 33°43' W 118°09'0 0.1
2015-Mar-14 07:33N 33°43' W 118°09'0 0.1
2015-Mar-14 06:33N 33°43' W 118°09'0 0.0
2015-Mar-14 05:33N 33°43' W 118°09'0 0.0
2015-Mar-14 04:33N 33°43' W 118°09'0 0.0
2015-Mar-14 03:33N 33°43' W 118°09'0 0.0
2015-Mar-14 02:33N 33°43' W 118°09'0 0.0
2015-Mar-14 01:33N 33°43' W 118°09'0 0.0
2015-Mar-14 00:30N 33°43' W 118°09'0 0.0
2015-Mar-13 21:30N 33°43' W 118°09'0 0.1
2015-Mar-13 20:33N 33°43' W 118°09'58 1.6
2015-Mar-12 07:11N 34°09' W 119°12'0 0.0
2015-Mar-11 22:26N 34°09' W 119°12'0 0.0
2015-Mar-11 20:11N 34°09' W 119°12'0 0.0
2015-Mar-11 19:29N 34°09' W 119°12'0 0.0
2015-Mar-11 18:29N 34°09' W 119°12'0 0.0
2015-Mar-11 17:32N 34°09' W 119°12'0 0.0
2015-Mar-11 16:29N 34°09' W 119°12'0 0.0
2015-Mar-11 15:14N 34°09' W 119°12'0 0.0
2015-Mar-11 14:29N 34°09' W 119°12'0 0.0
2015-Mar-11 13:32N 34°09' W 119°12'5 5.4
2015-Mar-11 12:33N 34°04' W 119°14'1010.5
2015-Mar-11 11:33N 33°59' W 119°03'1010.2
2015-Mar-11 10:33N 33°54' W 118°53'1010.2
2015-Mar-11 09:33N 33°49' W 118°42'1010.1
2015-Mar-11 08:33N 33°44' W 118°32'10 9.7
2015-Mar-11 07:33N 33°39' W 118°21'1110.8
2015-Mar-11 06:33N 33°35' W 118°09'1211.9
2015-Mar-11 05:33N 33°24' W 118°05'1111.4
2015-Mar-11 04:33N 33°13' W 117°60'1111.4
2015-Mar-11 03:33N 33°03' W 117°55'1111.0
2015-Mar-11 02:33N 32°52' W 117°51'1111.2
2015-Mar-11 01:33N 32°42' W 117°46'1111.1
2015-Mar-11 00:33N 32°31' W 117°42'1111.3
2015-Mar-10 23:33N 32°21' W 117°37'1111.5
2015-Mar-10 22:33N 32°10' W 117°33'1211.6
2015-Mar-10 21:32N 31°59' W 117°28'1111.5
2015-Mar-10 20:33N 31°48' W 117°24'1111.3
2015-Mar-10 19:33N 31°37' W 117°19'1111.4
2015-Mar-10 18:32N 31°26' W 117°15'10 8.8
2015-Mar-10 17:24N 31°17' W 117°11'1314.7
2015-Mar-10 16:30N 31°05' W 117°05'2215.2
2015-Mar-10 15:05N 30°44' W 116°57'18514.8
2015-Mar-10 02:34N 27°51' W 115°43'1414.2
2015-Mar-10 01:34N 27°40' W 115°33'2813.9
2015-Mar-09 23:33N 27°17' W 115°15'1413.7
2015-Mar-09 22:33N 27°06' W 115°06'3013.7
2015-Mar-09 20:21N 26°41' W 114°46'  
Track history (hours):
 
Tides and Currents Weather Stations Pressure Air Temp Water Temp Dewpoint Dewpoint Depression Visibility Wind Speed Wind Dir Waves Ship Positions

Tasman Crusader

Last reported at 2015-Mar-17 03:07 UTC. Time now 2015-Apr-01 09:25 UTC.
Position N 30°43' W 116°56'.
Warning: this ship's position is 15 days out of date.

Length 186 m; draft 9.3 m.

Type: Cargo ship. MMSI: 636091434.

Date/timePositionNaut miles runAvg speedWind from/ knotsBaromVisibWave heightAir tempDewpointWater temp
2015-Mar-17 03:07N 30°43' W 116°56'6611.6
2015-Mar-16 21:25N 31°45' W 117°22'1011.1
2015-Mar-16 20:31N 31°54' W 117°26'1111.0
2015-Mar-16 19:32N 32°04' W 117°30'1111.1
2015-Mar-16 18:34N 32°15' W 117°34'1111.1
2015-Mar-16 17:33N 32°25' W 117°38'1010.5
2015-Mar-16 16:33N 32°35' W 117°43'1110.8
2015-Mar-16 15:34N 32°45' W 117°48'1110.6
2015-Mar-16 14:33N 32°55' W 117°52'1110.6
2015-Mar-16 13:33N 33°04' W 117°58'1110.7
2015-Mar-16 12:33N 33°14' W 118°04'1111.0
2015-Mar-16 11:33N 33°24' W 118°08'1111.2
2015-Mar-16 10:33N 33°35' W 118°13'9 9.3
2015-Mar-16 09:33N 33°44' W 118°12'3 2.4
2015-Mar-16 08:28N 33°46' W 118°14'0 0.0
2015-Mar-16 07:28N 33°46' W 118°14'0 0.0
2015-Mar-16 06:28N 33°46' W 118°14'0 0.0
2015-Mar-16 05:28N 33°46' W 118°14'0 0.0
2015-Mar-16 03:10N 33°46' W 118°14'0 0.0
2015-Mar-16 02:22N 33°46' W 118°14'0 0.0
2015-Mar-16 01:22N 33°46' W 118°14'0 0.0
2015-Mar-15 20:19N 33°46' W 118°14'0 0.0
2015-Mar-15 19:31N 33°46' W 118°14'0 0.0
2015-Mar-15 18:31N 33°46' W 118°14'0 0.0
2015-Mar-15 17:31N 33°46' W 118°14'0 0.0
2015-Mar-15 16:31N 33°46' W 118°14'0 0.0
2015-Mar-15 15:31N 33°46' W 118°14'0 0.0
2015-Mar-15 14:31N 33°46' W 118°14'0 0.0
2015-Mar-15 13:31N 33°46' W 118°14'1 0.8
2015-Mar-15 12:33N 33°46' W 118°13'2 1.6
2015-Mar-15 11:33N 33°44' W 118°13'0 0.0
2015-Mar-15 10:30N 33°44' W 118°13'0 0.2
2015-Mar-15 09:30N 33°44' W 118°13'0 0.1
2015-Mar-15 08:33N 33°44' W 118°13'0 0.1
2015-Mar-15 07:33N 33°44' W 118°13'0 0.0
2015-Mar-15 06:33N 33°44' W 118°13'0 0.1
2015-Mar-15 05:33N 33°44' W 118°13'0 0.1
2015-Mar-15 04:33N 33°44' W 118°13'0 0.1
2015-Mar-15 03:33N 33°44' W 118°13'0 0.1
2015-Mar-15 02:33N 33°44' W 118°13'0 0.0
2015-Mar-15 01:33N 33°44' W 118°13'0 0.0
2015-Mar-15 00:33N 33°44' W 118°13'0 0.0
2015-Mar-14 23:32N 33°44' W 118°13'0 0.1
2015-Mar-14 22:33N 33°44' W 118°13'0 0.0
2015-Mar-14 21:32N 33°44' W 118°13'0 0.1
2015-Mar-14 20:32N 33°44' W 118°13'3 3.3
2015-Mar-14 19:33N 33°43' W 118°09'0 0.1
2015-Mar-14 18:27N 33°43' W 118°09'0 0.0
2015-Mar-14 17:24N 33°43' W 118°09'0 0.0
2015-Mar-14 16:30N 33°43' W 118°09'0 0.1
2015-Mar-14 15:33N 33°43' W 118°09'0 0.0
2015-Mar-14 14:33N 33°43' W 118°09'0 0.0
2015-Mar-14 13:33N 33°43' W 118°09'0 0.0
2015-Mar-14 12:33N 33°43' W 118°09'0 0.0
2015-Mar-14 11:33N 33°43' W 118°09'0 0.0
2015-Mar-14 10:33N 33°43' W 118°09'0 0.1
2015-Mar-14 09:33N 33°43' W 118°09'0 0.1
2015-Mar-14 08:33N 33°43' W 118°09'0 0.1
2015-Mar-14 07:33N 33°43' W 118°09'0 0.1
2015-Mar-14 06:33N 33°43' W 118°09'0 0.0
2015-Mar-14 05:33N 33°43' W 118°09'0 0.0
2015-Mar-14 04:33N 33°43' W 118°09'0 0.0
2015-Mar-14 03:33N 33°43' W 118°09'0 0.0
2015-Mar-14 02:33N 33°43' W 118°09'0 0.0
2015-Mar-14 01:33N 33°43' W 118°09'0 0.0
2015-Mar-14 00:30N 33°43' W 118°09'0 0.0
2015-Mar-13 21:30N 33°43' W 118°09'0 0.1
2015-Mar-13 20:33N 33°43' W 118°09'58 1.6
2015-Mar-12 07:11N 34°09' W 119°12'0 0.0
2015-Mar-11 22:26N 34°09' W 119°12'0 0.0
2015-Mar-11 20:11N 34°09' W 119°12'0 0.0
2015-Mar-11 19:29N 34°09' W 119°12'0 0.0
2015-Mar-11 18:29N 34°09' W 119°12'0 0.0
2015-Mar-11 17:32N 34°09' W 119°12'0 0.0
2015-Mar-11 16:29N 34°09' W 119°12'0 0.0
2015-Mar-11 15:14N 34°09' W 119°12'0 0.0
2015-Mar-11 14:29N 34°09' W 119°12'0 0.0
2015-Mar-11 13:32N 34°09' W 119°12'5 5.4
2015-Mar-11 12:33N 34°04' W 119°14'1010.5
2015-Mar-11 11:33N 33°59' W 119°03'1010.2
2015-Mar-11 10:33N 33°54' W 118°53'1010.2
2015-Mar-11 09:33N 33°49' W 118°42'1010.1
2015-Mar-11 08:33N 33°44' W 118°32'10 9.7
2015-Mar-11 07:33N 33°39' W 118°21'1110.8
2015-Mar-11 06:33N 33°35' W 118°09'1211.9
2015-Mar-11 05:33N 33°24' W 118°05'1111.4
2015-Mar-11 04:33N 33°13' W 117°60'1111.4
2015-Mar-11 03:33N 33°03' W 117°55'1111.0
2015-Mar-11 02:33N 32°52' W 117°51'1111.2
2015-Mar-11 01:33N 32°42' W 117°46'1111.1
2015-Mar-11 00:33N 32°31' W 117°42'1111.3
2015-Mar-10 23:33N 32°21' W 117°37'1111.5
2015-Mar-10 22:33N 32°10' W 117°33'1211.6
2015-Mar-10 21:32N 31°59' W 117°28'1111.5
2015-Mar-10 20:33N 31°48' W 117°24'1111.3
2015-Mar-10 19:33N 31°37' W 117°19'1111.4
2015-Mar-10 18:32N 31°26' W 117°15'10 8.8
2015-Mar-10 17:24N 31°17' W 117°11'1314.7
2015-Mar-10 16:30N 31°05' W 117°05'2215.2
2015-Mar-10 15:05N 30°44' W 116°57'18514.8
2015-Mar-10 02:34N 27°51' W 115°43'1414.2
2015-Mar-10 01:34N 27°40' W 115°33'2813.9
2015-Mar-09 23:33N 27°17' W 115°15'1413.7
2015-Mar-09 22:33N 27°06' W 115°06'3013.7
2015-Mar-09 20:21N 26°41' W 114°46'  

Dump ship's entire track history